Time;durP1;ratioP1;P1;durP2;ratioP2;P2;SDS_P1;SDS_P2;PMS_P1;PMS_P2;Temp;Humidity;BMP_temperature;BMP_pressure;BME280_temperature;BME280_humidity;BME280_pressure;Samples;Min_cycle;Max_cycle;Signal;HPM_P1;HPM_P2
2023/06/29 07:23:10;;;;;;;7.57;3.10;;;;;;;24.28;66.35;98239.59;5105186;27;20137;-41
2023/06/29 07:25:36;;;;;;;2.92;2.63;;;;;;;23.25;68.42;98241.34;5105842;28;20036;-45
2023/06/29 07:28:02;;;;;;;6.43;3.38;;;;;;;23.96;69.11;98236.06;5071061;28;20135;-43
2023/06/29 07:30:28;;;;;;;5.25;3.45;;;;;;;24.29;69.27;98238.56;5096981;28;20126;-46
2023/06/29 07:32:54;;;;;;;4.15;3.03;;;;;;;24.10;68.48;98245.13;5077046;28;20040;-44
2023/06/29 07:35:19;;;;;;;7.45;3.08;;;;;;;23.50;66.82;98227.06;5092156;28;20490;-41
2023/06/29 07:37:45;;;;;;;5.72;3.40;;;;;;;22.98;65.63;98234.56;5091475;28;20043;-41
2023/06/29 07:40:11;;;;;;;4.57;3.80;;;;;;;23.90;61.95;98228.78;5105299;28;20040;-41
2023/06/29 07:42:38;;;;;;;4.15;3.10;;;;;;;26.07;58.75;98205.03;5082827;28;20044;-43
2023/06/29 07:45:05;;;;;;;5.88;3.25;;;;;;;26.89;55.86;98230.41;5082545;28;20621;-42
2023/06/29 07:47:31;;;;;;;6.22;3.58;;;;;;;26.05;61.73;98229.22;5078658;28;20067;-44
2023/06/29 07:49:57;;;;;;;9.60;3.30;;;;;;;26.32;59.37;98214.41;5077280;28;20082;-44
2023/06/29 07:52:24;;;;;;;4.82;3.15;;;;;;;27.48;55.76;98214.00;5102169;28;20081;-48
2023/06/29 07:54:50;;;;;;;5.78;3.15;;;;;;;29.68;52.79;98215.97;5070451;28;20138;-47
2023/06/29 07:57:16;;;;;;;6.18;3.25;;;;;;;31.73;51.64;98211.00;5086656;28;20050;-45
2023/06/29 07:59:42;;;;;;;6.28;3.22;;;;;;;32.32;44.68;98205.75;5101454;28;20487;-47
2023/06/29 08:02:08;;;;;;;4.60;3.40;;;;;;;32.09;45.39;98212.84;5067917;28;20043;-45
2023/06/29 08:04:33;;;;;;;4.70;3.35;;;;;;;32.88;42.73;98217.19;5087076;28;20052;-55
2023/06/29 08:06:59;;;;;;;7.57;3.50;;;;;;;32.69;43.45;98214.59;5086982;28;20040;-48
2023/06/29 08:09:25;;;;;;;5.63;3.25;;;;;;;30.99;43.44;98198.41;5087374;28;20504;-48
2023/06/29 08:11:51;;;;;;;6.18;3.30;;;;;;;31.63;45.81;98203.47;5050404;28;20063;-44
2023/06/29 08:14:16;;;;;;;7.90;3.88;;;;;;;33.41;45.53;98209.06;5066775;28;20070;-46
2023/06/29 08:16:42;;;;;;;5.95;2.85;;;;;;;33.08;37.47;98209.63;5087245;28;20494;-44
2023/06/29 08:19:08;;;;;;;6.18;3.55;;;;;;;32.70;41.72;98204.63;5090071;28;20037;-42
2023/06/29 08:21:34;;;;;;;6.72;2.80;;;;;;;34.73;40.98;98205.38;5074290;28;20632;-44
2023/06/29 08:24:00;;;;;;;4.03;2.83;;;;;;;36.34;38.28;98200.72;5096374;28;20043;-46
2023/06/29 08:26:26;;;;;;;6.30;3.10;;;;;;;36.11;38.38;98201.75;5086934;28;20092;-46
2023/06/29 08:28:52;;;;;;;7.15;3.13;;;;;;;34.16;39.45;98209.09;5102258;28;20523;-45
2023/06/29 08:31:19;;;;;;;5.53;4.07;;;;;;;32.68;38.44;98202.16;5072058;28;20131;-45
2023/06/29 08:33:46;;;;;;;6.13;3.80;;;;;;;34.61;37.18;98206.47;5073755;28;20520;-44
2023/06/29 08:36:11;;;;;;;4.70;3.53;;;;;;;36.33;33.75;98204.47;5079287;28;20040;-42
2023/06/29 08:38:37;;;;;;;5.57;3.20;;;;;;;37.29;32.69;98193.75;5091255;28;20423;-44
2023/06/29 08:41:04;;;;;;;3.95;2.67;;;;;;;36.74;28.13;98199.53;5071821;28;20046;-43
2023/06/29 08:43:30;;;;;;;7.15;2.47;;;;;;;34.24;29.90;98196.06;5090036;28;20040;-43
2023/06/29 08:45:56;;;;;;;5.05;3.03;;;;;;;33.13;30.92;98183.63;5089575;28;20507;-43
2023/06/29 08:48:23;;;;;;;4.78;2.60;;;;;;;31.11;31.80;98186.78;5080979;28;20046;-42
2023/06/29 08:50:59;;;;;;;4.80;2.65;;;;;;;30.04;33.01;98188.69;5051135;28;20044;-42
2023/06/29 08:53:25;;;;;;;4.65;2.70;;;;;;;29.01;34.49;98187.63;5052766;28;20040;-41
2023/06/29 08:55:52;;;;;;;5.53;3.40;;;;;;;28.86;34.85;98181.66;5071355;28;20047;-41
2023/06/29 08:58:21;;;;;;;11.15;3.85;;;;;;;27.81;36.17;98177.66;5065390;28;20487;-38
2023/06/29 09:00:47;;;;;;;6.10;3.63;;;;;;;27.44;37.21;98177.22;5065801;28;20040;-37
2023/06/29 09:03:13;;;;;;;6.78;3.50;;;;;;;26.88;38.33;98172.72;5070427;28;20033;-38
2023/06/29 09:05:39;;;;;;;4.88;3.83;;;;;;;27.61;38.45;98167.91;5069254;28;20041;-39
2023/06/29 09:08:06;;;;;;;7.72;3.92;;;;;;;30.39;34.08;98175.72;5058892;28;20123;-39
2023/06/29 09:10:32;;;;;;;6.20;3.88;;;;;;;32.06;31.83;98170.28;5090572;28;20040;-39
2023/06/29 09:12:58;;;;;;;5.82;3.50;;;;;;;34.12;29.63;98175.56;5089433;28;20044;-40
2023/06/29 09:15:27;;;;;;;6.40;3.92;;;;;;;34.00;29.09;98178.31;5090804;28;20044;-39
2023/06/29 09:17:56;;;;;;;7.85;3.42;;;;;;;32.16;29.66;98163.34;5072312;28;20074;-39
2023/06/29 09:20:22;;;;;;;5.63;3.85;;;;;;;32.15;30.43;98142.88;5089396;28;20032;-40
2023/06/29 09:22:51;;;;;;;7.60;3.90;;;;;;;34.74;28.18;98168.41;5072738;28;20467;-39
2023/06/29 09:25:18;;;;;;;6.07;3.60;;;;;;;34.42;27.42;98133.00;5052016;28;20109;-39
2023/06/29 09:27:44;;;;;;;8.43;4.93;;;;;;;33.98;27.61;98151.56;5052089;28;20040;-38
2023/06/29 09:30:20;;;;;;;4.13;3.72;;;;;;;35.99;25.70;98154.28;5018947;28;20067;-38
2023/06/29 09:32:46;;;;;;;6.00;4.20;;;;;;;35.91;24.61;98146.59;5019327;28;20131;-39
2023/06/29 09:35:11;;;;;;;6.90;3.50;;;;;;;33.94;26.56;98109.13;5051936;28;20047;-39
2023/06/29 09:37:37;;;;;;;7.70;4.57;;;;;;;32.56;28.59;98134.00;5051847;28;20060;-39
2023/06/29 09:40:09;;;;;;;4.80;3.45;;;;;;;33.32;28.14;98140.44;5069665;28;20051;-41
2023/06/29 09:42:39;;;;;;;5.75;3.58;;;;;;;32.03;28.68;98127.72;5069759;28;20036;-40
2023/06/29 09:45:11;;;;;;;6.05;3.25;;;;;;;29.89;31.04;98108.50;5068714;28;20048;-40
2023/06/29 09:47:50;;;;;;;5.45;2.85;;;;;;;30.83;29.88;98095.13;5035212;28;20516;-38
2023/06/29 09:50:21;;;;;;;4.72;3.35;;;;;;;30.23;31.32;98129.63;5051594;28;20687;-38
2023/06/29 09:52:48;;;;;;;4.80;3.35;;;;;;;28.67;33.13;98102.22;5051603;28;20044;-39
2023/06/29 09:55:14;;;;;;;5.97;3.00;;;;;;;27.96;34.89;98105.38;5051545;28;20098;-39
2023/06/29 09:57:42;;;;;;;4.20;3.13;;;;;;;28.00;35.38;98106.59;5069531;28;20048;-39
2023/06/29 10:00:11;;;;;;;4.75;3.20;;;;;;;28.01;35.60;98105.59;5062901;28;20048;-38
2023/06/29 10:02:42;;;;;;;7.47;3.60;;;;;;;30.14;33.31;98100.59;5019668;28;20040;-39
2023/06/29 10:05:09;;;;;;;6.13;2.95;;;;;;;31.07;32.14;98105.06;5051376;28;20044;-39
2023/06/29 10:07:36;;;;;;;7.25;3.42;;;;;;;32.97;30.19;98126.97;5032478;28;20500;-40
2023/06/29 10:10:04;;;;;;;8.18;3.72;;;;;;;33.89;28.29;98106.34;5031367;28;20079;-39
2023/06/29 10:12:31;;;;;;;5.50;3.50;;;;;;;33.50;28.80;98111.47;5031486;28;20037;-39
2023/06/29 10:15:08;;;;;;;7.80;3.65;;;;;;;31.93;30.21;98104.88;5030975;28;20052;-39
2023/06/29 10:18:15;;;;;;;4.78;3.65;;;;;;;30.44;32.27;98104.31;5051214;28;20040;-39
2023/06/29 10:20:43;;;;;;;4.90;3.53;;;;;;;29.74;33.65;98092.72;4971159;28;20186;-39
2023/06/29 10:23:13;;;;;;;4.55;2.85;;;;;;;30.02;32.75;98103.13;5072550;28;20063;-40
2023/06/29 10:25:41;;;;;;;4.70;3.00;;;;;;;30.95;31.16;98074.56;5087889;28;20134;-39
2023/06/29 10:28:08;;;;;;;5.30;3.53;;;;;;;31.77;30.11;98099.34;5070916;28;20081;-40
2023/06/29 10:30:47;;;;;;;4.78;3.15;;;;;;;31.75;30.36;98075.38;5087962;28;20032;-38
2023/06/29 10:33:14;;;;;;;5.57;3.22;;;;;;;30.85;32.01;98086.84;5087581;28;20047;-38
2023/06/29 10:35:40;;;;;;;5.40;3.50;;;;;;;30.11;33.33;98079.56;5071024;28;20121;-39
2023/06/29 10:38:12;;;;;;;6.95;3.20;;;;;;;29.52;34.70;98074.50;5087773;28;20458;-39
2023/06/29 10:40:46;;;;;;;5.82;3.40;;;;;;;28.87;35.15;98082.47;5069924;28;20095;-39
2023/06/29 10:43:12;;;;;;;3.38;2.80;;;;;;;27.81;35.99;98045.94;5088713;28;20040;-39
2023/06/29 10:45:39;;;;;;;5.55;3.20;;;;;;;27.73;36.53;98070.19;5088750;28;20040;-38
2023/06/29 10:48:10;;;;;;;5.15;3.08;;;;;;;27.93;35.65;98065.72;5088835;28;20085;-38
2023/06/29 10:50:37;;;;;;;6.68;3.58;;;;;;;28.48;34.98;98061.06;5088747;28;20036;-39
2023/06/29 10:53:05;;;;;;;9.60;4.60;;;;;;;28.95;34.75;98063.50;5088538;28;20075;-39
2023/06/29 10:55:49;;;;;;;5.45;3.95;;;;;;;30.19;33.10;98053.34;5088395;28;20078;-38
2023/06/29 10:58:20;;;;;;;8.10;3.03;;;;;;;31.23;31.92;98049.13;5087089;28;20051;-39
2023/06/29 11:00:47;;;;;;;7.03;2.92;;;;;;;31.63;30.91;98058.34;5086830;28;20050;-38
2023/06/29 11:03:14;;;;;;;5.28;3.63;;;;;;;31.12;31.20;98056.88;5086971;28;20526;-39
2023/06/29 11:05:40;;;;;;;6.68;3.50;;;;;;;29.86;32.38;98044.66;5088614;28;20578;-39
2023/06/29 11:08:07;;;;;;;7.55;3.60;;;;;;;29.86;32.38;98047.31;5063421;28;20150;-39
2023/06/29 11:10:33;;;;;;;6.45;3.40;;;;;;;29.98;32.85;98050.19;5049953;28;20527;-41
2023/06/29 11:12:59;;;;;;;6.28;3.60;;;;;;;30.07;32.14;98027.44;5066987;28;20433;-39
2023/06/29 11:15:26;;;;;;;6.18;3.17;;;;;;;30.54;31.77;98053.69;5049865;28;20040;-39
2023/06/29 11:17:53;;;;;;;10.60;3.70;;;;;;;31.59;30.25;98054.50;5068141;28;20123;-39
2023/06/29 11:20:22;;;;;;;5.18;3.42;;;;;;;32.43;29.54;98056.19;5066654;28;20984;-39
2023/06/29 11:22:51;;;;;;;5.88;3.38;;;;;;;31.65;30.83;98053.59;5068118;28;20486;-38
2023/06/29 11:25:17;;;;;;;6.93;3.63;;;;;;;30.78;31.47;98051.19;5068193;28;20099;-40
2023/06/29 11:27:43;;;;;;;7.13;3.75;;;;;;;29.26;33.07;98046.75;5066239;28;20530;-38
2023/06/29 11:30:10;;;;;;;8.13;4.00;;;;;;;28.31;34.00;98057.16;5067022;28;20040;-39
2023/06/29 11:32:40;;;;;;;8.45;4.22;;;;;;;27.15;35.78;98043.00;5066394;28;20040;-39
2023/06/29 11:35:10;;;;;;;7.35;4.43;;;;;;;26.07;37.36;98045.22;5049981;28;20548;-39
2023/06/29 11:37:38;;;;;;;4.68;3.20;;;;;;;25.65;37.96;98054.81;5067966;28;20041;-38
2023/06/29 11:40:07;;;;;;;4.50;3.00;;;;;;;25.30;38.73;98064.41;5067978;28;20048;-38
2023/06/29 11:42:37;;;;;;;3.58;2.80;;;;;;;24.83;39.11;98063.94;5066816;28;20033;-39
2023/06/29 11:45:04;;;;;;;5.82;3.30;;;;;;;24.62;39.38;98055.84;5068222;28;20131;-39
2023/06/29 11:47:31;;;;;;;6.45;2.80;;;;;;;24.47;39.94;98059.31;5066786;28;20551;-39
2023/06/29 11:50:00;;;;;;;4.22;2.50;;;;;;;23.88;41.01;98074.16;5066459;28;20047;-39
2023/06/29 11:52:30;;;;;;;4.50;2.38;;;;;;;23.32;42.77;98071.78;5067761;28;20049;-38
2023/06/29 11:54:59;;;;;;;3.80;2.20;;;;;;;22.94;43.73;98099.91;5050026;28;20079;-38
2023/06/29 11:57:24;;;;;;;3.70;1.50;;;;;;;22.07;47.96;98117.28;5066817;28;20033;-38
2023/06/29 11:59:50;;;;;;;3.95;1.90;;;;;;;21.22;50.74;98114.81;5068763;28;20036;-38
2023/06/29 12:02:18;;;;;;;4.95;2.00;;;;;;;20.73;52.83;98121.63;5078653;28;20044;-38
2023/06/29 12:05:03;;;;;;;7.95;2.20;;;;;;;19.86;58.17;98132.84;5086647;28;20044;-41
2023/06/29 12:07:46;;;;;;;17.45;3.50;;;;;;;17.74;73.46;98162.16;5086730;28;20071;-38
2023/06/29 12:10:14;;;;;;;47.17;4.80;;;;;;;16.93;93.18;98181.41;5091995;28;20051;-39
2023/06/29 12:12:48;;;;;;;15.30;5.50;;;;;;;16.39;100.00;98152.69;5090529;28;20051;-39
2023/06/29 12:15:19;;;;;;;46.15;5.28;;;;;;;16.30;100.00;98182.28;5073070;28;20054;-39
2023/06/29 12:17:46;;;;;;;12.77;5.50;;;;;;;15.96;100.00;98176.31;5091700;28;20035;-41
2023/06/29 12:20:19;;;;;;;11.93;5.00;;;;;;;15.80;100.00;98164.56;5090361;28;20426;-40
2023/06/29 12:22:47;;;;;;;10.02;4.30;;;;;;;15.64;100.00;98155.31;5090143;28;20079;-41
2023/06/29 12:25:14;;;;;;;6.20;4.47;;;;;;;15.67;100.00;98169.94;5073336;28;20494;-40
2023/06/29 12:27:42;;;;;;;11.60;5.65;;;;;;;15.47;100.00;98105.19;5073324;28;20038;-40
2023/06/29 12:30:10;;;;;;;13.23;5.72;;;;;;;15.89;100.00;98158.59;5090089;28;20044;-40
2023/06/29 12:32:36;;;;;;;12.57;6.53;;;;;;;15.84;100.00;98147.66;5089925;28;20044;-39
2023/06/29 12:35:02;;;;;;;13.55;6.07;;;;;;;15.78;100.00;98129.78;5090253;28;20054;-39
2023/06/29 12:37:29;;;;;;;11.57;6.25;;;;;;;16.00;100.00;98133.19;5090075;28;20097;-39
2023/06/29 12:39:55;;;;;;;13.65;5.90;;;;;;;15.95;100.00;98127.50;5089917;28;20047;-39
2023/06/29 12:42:24;;;;;;;9.52;5.93;;;;;;;16.08;100.00;98133.38;5089660;28;20127;-39
2023/06/29 12:44:50;;;;;;;14.57;7.63;;;;;;;15.97;100.00;98117.69;5091182;28;20050;-47
2023/06/29 12:47:18;;;;;;;11.82;6.47;;;;;;;15.89;100.00;98098.31;5072810;28;20468;-46
2023/06/29 12:49:47;;;;;;;12.25;7.10;;;;;;;16.16;100.00;98132.78;5091142;28;20040;-48
2023/06/29 12:52:15;;;;;;;12.63;5.95;;;;;;;16.16;100.00;98119.66;5091156;28;20567;-47
2023/06/29 12:54:41;;;;;;;13.63;7.05;;;;;;;16.13;100.00;98093.69;5090682;28;20044;-47
2023/06/29 12:57:07;;;;;;;13.88;6.78;;;;;;;16.10;100.00;98089.53;5090273;28;20085;-47
2023/06/29 12:59:33;;;;;;;12.85;5.13;;;;;;;16.09;100.00;98085.25;5088233;28;20048;-51
2023/06/29 13:02:04;;;;;;;10.98;5.38;;;;;;;16.04;100.00;98094.44;5070877;28;20580;-47
2023/06/29 13:04:38;;;;;;;9.20;5.28;;;;;;;15.95;100.00;98090.78;5070496;28;20040;-47
2023/06/29 13:07:07;;;;;;;10.68;5.95;;;;;;;15.98;100.00;98089.69;5081320;28;20082;-49
2023/06/29 13:09:35;;;;;;;16.38;7.07;;;;;;;16.01;100.00;98090.28;5057542;28;20142;-47
2023/06/29 13:12:04;;;;;;;14.27;6.47;;;;;;;16.09;100.00;98093.09;5084973;28;20153;-46
2023/06/29 13:14:30;;;;;;;19.40;7.10;;;;;;;16.16;100.00;98082.13;5089352;28;20052;-51
2023/06/29 13:16:57;;;;;;;11.10;5.63;;;;;;;15.95;100.00;98045.41;5089184;28;20151;-47
2023/06/29 13:19:25;;;;;;;12.77;6.28;;;;;;;16.31;100.00;98079.06;5089587;28;20051;-47
2023/06/29 13:21:51;;;;;;;16.50;6.53;;;;;;;16.34;100.00;98078.78;5069921;28;20071;-46
2023/06/29 13:24:17;;;;;;;9.05;6.03;;;;;;;16.21;100.00;98036.22;5089311;28;20193;-44
2023/06/29 13:26:43;;;;;;;18.00;6.63;;;;;;;16.31;100.00;98033.66;5087848;28;20678;-44
2023/06/29 13:29:09;;;;;;;11.65;6.15;;;;;;;16.63;100.00;98063.28;5057482;28;20044;-47
2023/06/29 13:31:35;;;;;;;9.40;5.28;;;;;;;16.73;100.00;98073.81;5079319;28;20036;-47
2023/06/29 13:34:00;;;;;;;9.77;5.50;;;;;;;16.78;100.00;98076.88;5083627;28;20062;-47
2023/06/29 13:36:26;;;;;;;10.43;6.38;;;;;;;16.68;100.00;98063.72;5088702;28;20044;-46
2023/06/29 13:38:52;;;;;;;10.63;6.63;;;;;;;16.86;100.00;98080.50;5072118;28;20104;-51
2023/06/29 13:41:19;;;;;;;9.50;5.50;;;;;;;16.93;100.00;98100.03;5090243;28;20050;-49
2023/06/29 13:43:45;;;;;;;9.93;5.82;;;;;;;16.92;100.00;98098.38;5090395;28;20043;-46
2023/06/29 13:46:11;;;;;;;5.57;3.15;;;;;;;16.84;100.00;98116.56;5088309;28;20055;-46
2023/06/29 13:48:37;;;;;;;8.98;3.70;;;;;;;16.50;100.00;98121.16;5062758;28;20032;-49
2023/06/29 13:51:02;;;;;;;11.88;4.95;;;;;;;16.28;100.00;98123.88;5088301;28;20071;-48
2023/06/29 13:53:28;;;;;;;9.13;4.75;;;;;;;16.19;100.00;98124.66;5090017;28;20122;-50
2023/06/29 13:55:54;;;;;;;7.63;4.80;;;;;;;16.26;100.00;98115.31;5089573;28;20031;-48
2023/06/29 13:58:20;;;;;;;11.95;6.22;;;;;;;16.41;100.00;98114.06;5096539;28;20097;-45
2023/06/29 14:00:46;;;;;;;11.55;5.38;;;;;;;16.46;100.00;98119.75;5082155;28;20048;-47
2023/06/29 14:03:12;;;;;;;16.77;5.68;;;;;;;16.52;100.00;98137.59;5087481;28;20040;-46
2023/06/29 14:05:38;;;;;;;8.68;4.93;;;;;;;16.35;100.00;98124.22;5062969;28;20048;-47
2023/06/29 14:08:04;;;;;;;9.60;5.22;;;;;;;16.18;100.00;98120.34;5083094;28;20129;-42
2023/06/29 14:10:30;;;;;;;9.82;5.57;;;;;;;16.24;100.00;98127.72;5085207;28;20028;-44
2023/06/29 14:12:56;;;;;;;9.25;6.20;;;;;;;16.42;100.00;98128.84;5078587;28;20056;-46
2023/06/29 14:15:22;;;;;;;12.55;6.68;;;;;;;16.62;100.00;98131.63;5084502;28;20036;-46
2023/06/29 14:17:47;;;;;;;13.40;6.97;;;;;;;16.79;100.00;98146.78;5086320;28;20028;-48
2023/06/29 14:20:13;;;;;;;13.27;7.15;;;;;;;16.82;100.00;98151.78;5070810;28;20043;-50
2023/06/29 14:22:39;;;;;;;19.05;6.50;;;;;;;16.81;100.00;98147.47;5063720;28;20085;-47
2023/06/29 14:25:05;;;;;;;10.10;5.75;;;;;;;16.50;100.00;98128.19;5077733;28;20051;-45
2023/06/29 14:27:31;;;;;;;16.27;7.82;;;;;;;16.19;100.00;98155.28;5079549;28;20036;-45
2023/06/29 14:29:57;;;;;;;13.18;7.00;;;;;;;16.13;100.00;98177.56;5075963;28;20126;-49
2023/06/29 14:32:23;;;;;;;12.63;7.13;;;;;;;15.90;100.00;98168.97;5080584;28;20180;-45
2023/06/29 14:34:49;;;;;;;13.57;7.40;;;;;;;15.70;100.00;98146.16;5078535;28;20482;-42
2023/06/29 14:37:15;;;;;;;16.17;9.05;;;;;;;15.56;100.00;98099.22;5081906;28;20044;-44
2023/06/29 14:39:41;;;;;;;19.63;10.15;;;;;;;15.90;100.00;98118.31;5076090;28;20051;-46
2023/06/29 14:42:07;;;;;;;24.83;10.70;;;;;;;15.99;100.00;98113.16;5074011;28;20040;-42
2023/06/29 14:44:33;;;;;;;18.00;8.18;;;;;;;16.02;100.00;98117.31;5081771;28;20044;-43
2023/06/29 14:47:00;;;;;;;13.73;8.43;;;;;;;15.98;100.00;98114.13;5076851;28;20079;-49
2023/06/29 14:49:26;;;;;;;22.98;9.85;;;;;;;15.99;100.00;98104.47;5079466;28;20151;-46
2023/06/29 14:51:52;;;;;;;21.45;9.95;;;;;;;15.93;100.00;98074.34;5070145;28;20478;-50
2023/06/29 14:54:18;;;;;;;21.92;9.52;;;;;;;16.15;100.00;98093.56;5080450;28;20056;-47
2023/06/29 14:56:44;;;;;;;19.48;9.23;;;;;;;16.22;100.00;98089.50;5082492;28;20043;-45
2023/06/29 14:59:11;;;;;;;26.40;12.25;;;;;;;16.27;100.00;98093.41;5081353;28;20431;-46
2023/06/29 15:01:37;;;;;;;24.33;13.63;;;;;;;16.31;100.00;98084.31;5060478;28;20131;-49
2023/06/29 15:04:03;;;;;;;25.10;14.80;;;;;;;16.34;100.00;98083.19;5077629;28;20544;-48
2023/06/29 15:06:29;;;;;;;26.02;13.73;;;;;;;16.07;100.00;98033.88;5081953;28;20054;-44
2023/06/29 15:08:55;;;;;;;17.08;10.10;;;;;;;16.39;100.00;98079.25;5081654;28;20139;-44
2023/06/29 15:11:21;;;;;;;18.42;9.50;;;;;;;16.42;100.00;98083.41;5046771;28;20047;-44
2023/06/29 15:13:47;;;;;;;15.35;8.68;;;;;;;16.49;100.00;98081.91;5072212;28;20051;-54
2023/06/29 15:16:13;;;;;;;14.82;8.98;;;;;;;16.48;100.00;98081.13;5064646;28;20044;-44
2023/06/29 15:18:39;;;;;;;13.63;8.45;;;;;;;16.49;100.00;98072.25;5062904;28;20086;-49
2023/06/29 15:21:05;;;;;;;14.45;8.85;;;;;;;16.50;100.00;98075.72;5073930;28;20543;-45
2023/06/29 15:23:31;;;;;;;19.08;9.00;;;;;;;16.49;100.00;98067.00;5059601;28;20041;-48
2023/06/29 15:25:58;;;;;;;17.10;8.52;;;;;;;16.38;100.00;98034.81;5044175;28;20045;-48
2023/06/29 15:28:26;;;;;;;13.90;8.25;;;;;;;16.52;100.00;98063.31;4997888;28;20103;-48
2023/06/29 15:30:51;;;;;;;12.68;7.78;;;;;;;16.50;100.00;98071.31;5046468;28;20098;-49
2023/06/29 15:33:17;;;;;;;13.80;7.88;;;;;;;16.50;100.00;98076.56;5037505;28;20076;-48
2023/06/29 15:35:44;;;;;;;15.85;8.57;;;;;;;16.43;100.00;98062.28;5051331;28;20571;-46
2023/06/29 15:38:09;;;;;;;13.80;8.68;;;;;;;16.41;100.00;98060.75;5054959;28;20045;-46
2023/06/29 15:40:35;;;;;;;17.40;8.60;;;;;;;16.62;100.00;98087.84;5063935;28;20382;-49
2023/06/29 15:43:01;;;;;;;17.23;9.95;;;;;;;16.51;100.00;98057.22;5041167;28;20056;-46
2023/06/29 15:45:27;;;;;;;16.63;9.85;;;;;;;16.69;100.00;98081.13;5058430;28;20044;-48
2023/06/29 15:47:53;;;;;;;15.40;9.80;;;;;;;16.66;100.00;98073.50;5033713;28;20132;-49
2023/06/29 15:50:19;;;;;;;20.23;9.52;;;;;;;16.64;100.00;98069.38;5061893;28;20582;-50
2023/06/29 15:52:45;;;;;;;18.13;10.80;;;;;;;16.66;100.00;98068.25;5059397;28;20049;-49
2023/06/29 15:55:11;;;;;;;18.20;10.02;;;;;;;16.62;100.00;98052.91;5043273;28;20541;-47
2023/06/29 15:57:37;;;;;;;18.35;11.80;;;;;;;16.59;100.00;98068.91;5035566;28;20072;-52
2023/06/29 16:00:04;;;;;;;16.15;10.43;;;;;;;16.43;100.00;98030.81;5016014;28;20132;-50
2023/06/29 16:02:37;;;;;;;14.82;10.13;;;;;;;16.55;100.00;98055.19;5043687;28;20040;-44
2023/06/29 16:05:03;;;;;;;17.15;10.75;;;;;;;16.49;100.00;98046.03;5043591;28;20036;-47
2023/06/29 16:07:29;;;;;;;18.23;10.75;;;;;;;16.49;100.00;98056.53;5062378;28;20045;-48
2023/06/29 16:09:55;;;;;;;19.80;11.52;;;;;;;16.47;100.00;98055.84;5065264;28;20047;-53
2023/06/29 16:12:21;;;;;;;18.77;11.27;;;;;;;16.33;100.00;98027.28;5063725;28;20044;-52
2023/06/29 16:14:47;;;;;;;17.67;11.55;;;;;;;16.45;100.00;98052.50;5046080;28;20044;-52
2023/06/29 16:17:14;;;;;;;14.88;9.88;;;;;;;16.44;100.00;98057.88;5066366;28;20044;-51
2023/06/29 16:19:40;;;;;;;16.23;10.77;;;;;;;16.41;100.00;98058.13;5062413;28;20527;-48
2023/06/29 16:22:06;;;;;;;15.77;10.55;;;;;;;16.38;100.00;98058.41;5059206;28;20049;-53
2023/06/29 16:24:32;;;;;;;17.40;11.07;;;;;;;16.36;100.00;98060.31;5027414;28;20528;-52
2023/06/29 16:26:58;;;;;;;16.35;10.00;;;;;;;16.08;100.00;98017.19;5049289;28;20066;-48
2023/06/29 16:29:23;;;;;;;17.90;11.45;;;;;;;16.17;100.00;98040.06;5055316;28;20078;-51
2023/06/29 16:31:50;;;;;;;19.60;11.15;;;;;;;16.28;100.00;98052.25;5066282;28;20040;-52
2023/06/29 16:34:16;;;;;;;18.63;10.73;;;;;;;16.28;100.00;98054.84;5046769;28;20041;-55
2023/06/29 16:36:42;;;;;;;19.52;11.95;;;;;;;16.22;100.00;98047.53;5066191;28;20055;-50
2023/06/29 16:39:08;;;;;;;13.88;10.00;;;;;;;16.12;100.00;98044.00;5019782;28;20039;-48
2023/06/29 16:41:34;;;;;;;17.58;9.43;;;;;;;16.01;100.00;98040.50;5041653;28;20416;-52
2023/06/29 16:44:00;;;;;;;14.57;9.98;;;;;;;15.95;100.00;98038.38;5062228;28;20101;-53
2023/06/29 16:46:26;;;;;;;15.40;8.63;;;;;;;15.90;100.00;98030.06;5058796;28;20505;-50
2023/06/29 16:48:56;;;;;;;15.73;10.02;;;;;;;15.82;100.00;98024.59;5038110;28;20095;-51
2023/06/29 16:51:22;;;;;;;17.65;9.77;;;;;;;15.79;100.00;98034.50;5060284;28;20047;-47
2023/06/29 16:53:48;;;;;;;15.32;9.25;;;;;;;15.76;100.00;98035.56;5043730;28;20040;-49
2023/06/29 16:56:14;;;;;;;17.27;10.82;;;;;;;15.73;100.00;98030.59;5060756;28;20113;-51
2023/06/29 16:58:40;;;;;;;15.88;9.15;;;;;;;15.55;100.00;97998.88;5059478;28;20105;-46
2023/06/29 17:01:06;;;;;;;12.65;8.40;;;;;;;15.70;100.00;98022.16;5059424;28;20037;-47
2023/06/29 17:03:31;;;;;;;18.83;10.77;;;;;;;15.64;100.00;98018.25;5041411;28;20102;-45
2023/06/29 17:05:57;;;;;;;17.95;10.77;;;;;;;15.64;100.00;98020.88;5062234;28;20163;-51
2023/06/29 17:08:23;;;;;;;15.32;10.68;;;;;;;15.66;100.00;98026.81;5059589;28;20519;-52
2023/06/29 17:10:49;;;;;;;27.38;13.55;;;;;;;15.44;100.00;97995.44;5047324;28;20595;-53
2023/06/29 17:13:14;;;;;;;15.07;9.50;;;;;;;15.61;100.00;98032.41;5032568;28;20045;-50
2023/06/29 17:15:40;;;;;;;14.75;8.70;;;;;;;15.57;100.00;98025.78;5040773;28;20093;-54
2023/06/29 17:18:06;;;;;;;18.05;10.05;;;;;;;15.55;100.00;98027.66;5042790;28;20064;-53
2023/06/29 17:20:32;;;;;;;13.25;9.38;;;;;;;15.55;100.00;98024.22;5059707;28;20071;-51
2023/06/29 17:22:58;;;;;;;12.63;9.00;;;;;;;15.53;100.00;98021.75;5066673;28;20047;-51
2023/06/29 17:25:24;;;;;;;14.45;9.40;;;;;;;15.53;100.00;98028.78;5068384;28;20040;-51
2023/06/29 17:27:50;;;;;;;16.08;9.93;;;;;;;15.49;100.00;98009.00;5064775;28;20102;-51
2023/06/29 17:30:16;;;;;;;15.98;9.48;;;;;;;15.49;100.00;98007.19;5051082;28;20049;-55
2023/06/29 17:32:43;;;;;;;19.20;10.07;;;;;;;15.45;100.00;98011.00;5050086;28;20464;-48
2023/06/29 17:35:09;;;;;;;13.05;9.07;;;;;;;15.45;100.00;98005.78;5062226;28;20649;-49
2023/06/29 17:37:35;;;;;;;13.98;8.98;;;;;;;15.43;100.00;98007.69;5040065;28;20165;-52
2023/06/29 17:40:01;;;;;;;16.70;9.27;;;;;;;15.41;100.00;98012.22;5059137;28;20063;-49
2023/06/29 17:42:27;;;;;;;19.45;9.80;;;;;;;15.38;100.00;97999.38;5057708;28;20060;-51
2023/06/29 17:44:53;;;;;;;18.88;11.35;;;;;;;15.37;100.00;97996.88;5060782;28;20048;-50
2023/06/29 17:47:19;;;;;;;22.25;12.60;;;;;;;15.37;100.00;97999.50;5039464;28;20991;-48
2023/06/29 17:49:44;;;;;;;15.45;10.48;;;;;;;15.35;100.00;97993.53;5062473;28;20040;-47
2023/06/29 17:52:10;;;;;;;16.58;10.35;;;;;;;15.15;100.00;97979.44;5032105;28;20861;-51
2023/06/29 17:54:37;;;;;;;15.07;10.55;;;;;;;15.30;100.00;98003.56;5018641;28;20040;-48
2023/06/29 17:57:04;;;;;;;16.92;10.98;;;;;;;15.27;100.00;98015.13;5036427;28;20041;-47
2023/06/29 17:59:30;;;;;;;19.35;10.60;;;;;;;15.22;100.00;98004.19;5040383;28;20063;-51
2023/06/29 18:01:56;;;;;;;17.63;10.90;;;;;;;15.25;100.00;98012.63;5036835;28;20036;-50
2023/06/29 18:04:22;;;;;;;18.77;10.85;;;;;;;15.26;100.00;98014.28;5056485;28;20132;-47
2023/06/29 18:06:48;;;;;;;14.85;10.63;;;;;;;15.27;100.00;98013.34;5062948;28;20427;-50
2023/06/29 18:09:14;;;;;;;17.67;11.05;;;;;;;15.19;100.00;97997.41;5057879;28;20052;-53
2023/06/29 18:11:39;;;;;;;16.65;11.23;;;;;;;15.35;100.00;98011.88;5032865;28;20130;-54
2023/06/29 18:14:05;;;;;;;17.65;11.48;;;;;;;15.35;100.00;98015.31;5024567;28;20044;-50
2023/06/29 18:16:31;;;;;;;18.60;11.90;;;;;;;15.34;100.00;98015.44;5036636;28;20513;-54
2023/06/29 18:18:57;;;;;;;16.90;11.85;;;;;;;15.35;100.00;98011.88;5044131;28;20130;-48
2023/06/29 18:21:23;;;;;;;20.02;11.57;;;;;;;15.33;100.00;98022.50;5042117;28;20097;-49
2023/06/29 18:23:49;;;;;;;20.27;12.10;;;;;;;15.35;100.00;98019.72;5089710;28;20132;-54
2023/06/29 18:26:16;;;;;;;18.08;11.95;;;;;;;15.37;100.00;98028.31;5087743;28;20086;-53
2023/06/29 18:28:42;;;;;;;18.35;11.75;;;;;;;15.36;100.00;98024.84;5071608;28;20036;-52
2023/06/29 18:31:08;;;;;;;20.30;12.93;;;;;;;15.34;100.00;98018.06;5054167;28;20036;-50
2023/06/29 18:33:34;;;;;;;17.67;12.40;;;;;;;15.36;100.00;98017.00;5052166;28;20044;-52
2023/06/29 18:36:00;;;;;;;19.52;11.88;;;;;;;15.37;100.00;98017.84;5054805;28;20052;-53
2023/06/29 18:38:25;;;;;;;19.40;12.90;;;;;;;15.40;100.00;98014.94;5067826;28;20072;-49
2023/06/29 18:40:51;;;;;;;17.48;12.32;;;;;;;15.42;100.00;98020.91;5068080;28;20069;-46
2023/06/29 18:43:17;;;;;;;19.73;12.25;;;;;;;15.45;100.00;98016.25;5072915;28;20075;-49